createdAt,value
2022-10-25T00:00:48.833Z,10.40
2022-10-25T00:03:17.421Z,10.40
2022-10-25T00:05:45.586Z,10.50
2022-10-25T00:08:13.698Z,10.40
2022-10-25T00:10:41.803Z,10.20
2022-10-25T00:13:09.671Z,10.30
2022-10-25T00:15:37.957Z,10.30
2022-10-25T00:18:06.194Z,10.40
2022-10-25T00:20:37.331Z,10.40
2022-10-25T00:23:05.126Z,10.40
2022-10-25T00:25:33.072Z,10.50
2022-10-25T00:28:00.950Z,10.50
2022-10-25T00:30:29.169Z,10.50
2022-10-25T00:32:57.611Z,10.60
2022-10-25T00:35:25.746Z,10.60
2022-10-25T00:37:53.777Z,10.60
2022-10-25T00:40:22.767Z,10.60
2022-10-25T00:42:52.521Z,10.50
2022-10-25T00:45:23.915Z,10.50
2022-10-25T00:48:06.406Z,10.40
2022-10-25T00:50:53.253Z,10.30
2022-10-25T00:53:28.850Z,10.40
2022-10-25T00:56:05.255Z,10.40
2022-10-25T00:58:38.109Z,10.40
2022-10-25T01:01:08.733Z,10.40
2022-10-25T01:03:39.472Z,10.40
2022-10-25T01:06:14.039Z,10.40
2022-10-25T01:08:44.032Z,10.40
2022-10-25T01:11:12.624Z,10.40
2022-10-25T01:13:41.374Z,10.40
2022-10-25T01:16:36.072Z,10.50
2022-10-25T01:19:24.822Z,10.60
2022-10-25T01:22:19.329Z,10.70
2022-10-25T01:25:09.633Z,10.80
2022-10-25T01:28:06.671Z,10.90
2022-10-25T01:30:58.134Z,11.00
2022-10-25T01:33:39.993Z,11.10
2022-10-25T01:36:57.309Z,11.10
2022-10-25T01:39:41.053Z,11.20
2022-10-25T01:42:22.161Z,11.20
2022-10-25T01:45:40.444Z,11.20
2022-10-25T01:48:19.107Z,11.20
2022-10-25T01:50:47.806Z,11.20
2022-10-25T01:53:16.552Z,11.30
2022-10-25T01:55:56.269Z,11.30
2022-10-25T01:59:13.894Z,11.30
2022-10-25T02:02:07.530Z,11.30
2022-10-25T02:05:16.814Z,11.20
2022-10-25T02:08:05.008Z,11.20
2022-10-25T02:10:50.306Z,11.10
2022-10-25T02:13:31.981Z,11.10
2022-10-25T02:16:10.848Z,11.00
2022-10-25T02:18:44.426Z,10.90
2022-10-25T02:21:13.936Z,10.90
2022-10-25T02:23:42.958Z,10.90
2022-10-25T02:26:11.614Z,10.90
2022-10-25T02:28:41.020Z,10.90
2022-10-25T02:31:14.700Z,11.00
2022-10-25T02:33:47.002Z,11.10
2022-10-25T02:36:31.825Z,11.10
2022-10-25T02:39:00.650Z,11.20
2022-10-25T02:41:28.762Z,11.20
2022-10-25T02:43:56.921Z,11.30
2022-10-25T02:46:25.049Z,11.40
2022-10-25T02:48:53.374Z,11.40
2022-10-25T02:51:22.924Z,11.40
2022-10-25T02:53:50.789Z,11.40
2022-10-25T02:56:22.110Z,11.40
2022-10-25T02:58:52.661Z,11.40
2022-10-25T03:01:21.530Z,11.40
2022-10-25T03:03:50.160Z,11.40
2022-10-25T03:06:18.925Z,11.50
2022-10-25T03:08:47.349Z,11.40
2022-10-25T03:11:16.884Z,11.40
2022-10-25T03:13:45.752Z,11.30
2022-10-25T03:16:13.921Z,11.20
2022-10-25T03:18:42.221Z,11.20
2022-10-25T03:21:10.182Z,11.10
2022-10-25T03:23:38.481Z,11.00
2022-10-25T03:26:06.557Z,10.90
2022-10-25T03:28:34.615Z,10.90
2022-10-25T03:31:02.601Z,10.80
2022-10-25T03:33:32.318Z,10.70
2022-10-25T03:36:02.105Z,10.70
2022-10-25T03:38:30.271Z,10.60
2022-10-25T03:40:58.082Z,10.60
2022-10-25T03:43:26.328Z,10.50
2022-10-25T03:45:54.560Z,10.50
2022-10-25T03:48:22.753Z,10.40
2022-10-25T03:50:50.950Z,10.40
2022-10-25T03:53:18.422Z,10.30
2022-10-25T03:55:46.388Z,10.20
2022-10-25T03:58:14.351Z,10.20
2022-10-25T04:00:42.712Z,10.20
2022-10-25T04:03:10.654Z,10.10
2022-10-25T04:05:38.463Z,10.10
2022-10-25T04:08:06.629Z,10.00
2022-10-25T04:10:33.417Z,10.00
2022-10-25T04:13:02.409Z,10.00
2022-10-25T04:15:29.804Z,10.00
2022-10-25T04:17:57.652Z,10.00
2022-10-25T04:20:24.412Z,10.00
2022-10-25T04:22:56.334Z,9.90
2022-10-25T04:25:25.879Z,9.90
2022-10-25T04:27:53.772Z,9.90
2022-10-25T04:30:21.953Z,10.00
2022-10-25T04:32:50.541Z,9.90
2022-10-25T04:35:18.492Z,9.90
2022-10-25T04:37:46.916Z,9.90
2022-10-25T04:40:14.466Z,9.90
2022-10-25T04:42:42.446Z,9.90
2022-10-25T04:45:09.841Z,9.90
2022-10-25T04:47:38.029Z,9.80
2022-10-25T04:50:05.986Z,9.80
2022-10-25T04:52:33.971Z,9.80
2022-10-25T04:55:02.376Z,9.80
2022-10-25T04:57:30.667Z,9.90
2022-10-25T04:59:58.634Z,9.90
2022-10-25T05:02:26.926Z,9.90
2022-10-25T05:04:54.386Z,9.90
2022-10-25T05:07:22.515Z,9.90
2022-10-25T05:09:49.484Z,9.90
2022-10-25T05:12:17.370Z,10.00
2022-10-25T05:14:44.422Z,10.00
2022-10-25T05:17:12.170Z,10.10
2022-10-25T05:19:39.464Z,10.20
2022-10-25T05:22:07.603Z,10.20
2022-10-25T05:24:34.616Z,10.30
2022-10-25T05:27:03.904Z,10.30
2022-10-25T05:29:31.460Z,10.30
2022-10-25T05:31:59.952Z,10.40
2022-10-25T05:34:28.574Z,10.40
2022-10-25T05:36:57.329Z,10.40
2022-10-25T05:39:24.970Z,10.30
2022-10-25T05:41:53.384Z,10.30
2022-10-25T05:44:20.470Z,10.20
2022-10-25T05:46:48.325Z,10.20
2022-10-25T05:49:15.424Z,10.10
2022-10-25T05:51:43.692Z,10.00
2022-10-25T05:54:13.752Z,9.90
2022-10-25T05:56:43.045Z,9.90
2022-10-25T05:59:12.921Z,9.80
2022-10-25T06:01:45.863Z,9.80
2022-10-25T06:04:15.130Z,9.80
2022-10-25T06:06:43.626Z,9.70
2022-10-25T06:09:13.947Z,9.70
2022-10-25T06:11:42.360Z,9.70
2022-10-25T06:14:11.029Z,9.70
2022-10-25T06:16:40.214Z,9.70
2022-10-25T06:19:07.699Z,9.70
2022-10-25T06:21:34.666Z,9.70
2022-10-25T06:24:02.534Z,9.70
2022-10-25T06:26:31.447Z,9.80
2022-10-25T06:29:03.650Z,9.80
2022-10-25T06:31:33.310Z,9.90
2022-10-25T06:34:02.115Z,10.00
2022-10-25T06:36:31.392Z,10.00
2022-10-25T06:39:05.121Z,10.10
2022-10-25T06:41:37.485Z,10.30
2022-10-25T06:44:07.213Z,10.50
2022-10-25T06:47:04.460Z,10.80
2022-10-25T06:49:26.489Z,11.00
2022-10-25T06:51:54.722Z,11.30
2022-10-25T06:54:22.642Z,11.60
2022-10-25T06:56:50.529Z,11.80
2022-10-25T06:59:20.987Z,12.10
2022-10-25T07:01:50.077Z,12.30
2022-10-25T07:04:18.541Z,12.50
2022-10-25T07:06:50.034Z,12.60
2022-10-25T07:09:20.838Z,12.70
2022-10-25T07:11:48.515Z,12.90
2022-10-25T07:14:18.080Z,13.00
2022-10-25T07:16:46.556Z,13.10
2022-10-25T07:19:15.011Z,13.30
2022-10-25T07:21:45.099Z,13.50
2022-10-25T07:24:12.106Z,13.60
2022-10-25T07:26:40.541Z,13.70
2022-10-25T07:29:08.976Z,13.90
2022-10-25T07:31:41.076Z,14.00
2022-10-25T07:34:13.557Z,14.00
2022-10-25T07:36:42.207Z,14.10
2022-10-25T07:39:11.015Z,14.10
2022-10-25T07:41:38.597Z,14.20
2022-10-25T07:44:08.069Z,14.40
2022-10-25T07:46:37.602Z,14.70
2022-10-25T07:49:04.532Z,14.90
2022-10-25T07:51:32.782Z,15.30
2022-10-25T07:54:00.549Z,15.40
2022-10-25T07:56:30.652Z,15.70
2022-10-25T07:58:58.705Z,15.90
2022-10-25T08:01:29.125Z,16.10
2022-10-25T08:03:57.245Z,16.50
2022-10-25T08:06:26.033Z,17.00
2022-10-25T08:08:54.384Z,17.20
2022-10-25T08:11:24.620Z,17.10
2022-10-25T08:13:51.625Z,16.80
2022-10-25T08:16:20.055Z,16.60
2022-10-25T08:18:48.311Z,16.50
2022-10-25T08:21:15.769Z,16.60
2022-10-25T08:23:43.672Z,16.80
2022-10-25T08:26:13.597Z,17.00
2022-10-25T08:28:41.821Z,17.20
2022-10-25T08:31:12.711Z,17.40
2022-10-25T08:36:40.687Z,17.40
2022-10-25T08:39:13.604Z,17.30
2022-10-25T08:42:01.996Z,17.50
2022-10-25T08:44:59.053Z,17.40
2022-10-25T08:47:41.509Z,17.50
2022-10-25T08:50:26.837Z,17.90
2022-10-25T08:53:03.194Z,18.00
2022-10-25T08:55:41.794Z,18.00
2022-10-25T08:58:46.215Z,18.10
2022-10-25T09:01:25.099Z,18.00
2022-10-25T09:04:10.862Z,18.00
2022-10-25T09:07:06.417Z,18.30
2022-10-25T09:09:39.422Z,18.40
2022-10-25T09:12:33.770Z,18.00
2022-10-25T09:15:06.956Z,17.40
2022-10-25T09:17:50.179Z,16.90
2022-10-25T09:20:30.269Z,16.50
2022-10-25T09:23:03.021Z,16.30
2022-10-25T09:26:06.089Z,16.20
2022-10-25T09:29:02.543Z,16.10
2022-10-25T09:31:40.922Z,16.10
2022-10-25T09:34:11.298Z,16.00
2022-10-25T09:36:55.384Z,16.00
2022-10-25T09:39:49.273Z,16.00
2022-10-25T09:42:48.251Z,16.00
2022-10-25T09:45:30.940Z,15.90
2022-10-25T09:48:15.809Z,15.90
2022-10-25T09:51:13.698Z,15.90
2022-10-25T09:53:50.766Z,15.90
2022-10-25T09:56:18.974Z,15.90
2022-10-25T09:58:54.701Z,15.80
2022-10-25T10:01:32.738Z,15.80
2022-10-25T10:04:26.942Z,15.70
2022-10-25T10:07:02.230Z,15.70
2022-10-25T10:09:43.359Z,15.60
2022-10-25T10:12:25.139Z,15.70
2022-10-25T10:15:14.128Z,15.70
2022-10-25T10:17:47.910Z,15.60
2022-10-25T10:20:19.148Z,15.60
2022-10-25T10:22:54.466Z,15.60
2022-10-25T10:25:28.126Z,15.60
2022-10-25T10:28:02.443Z,15.70
2022-10-25T10:30:33.258Z,15.60
2022-10-25T10:33:02.629Z,15.70
2022-10-25T10:35:54.130Z,15.70
2022-10-25T10:38:29.358Z,15.80
2022-10-25T10:41:35.069Z,15.80
2022-10-25T10:44:17.666Z,15.90
2022-10-25T10:46:47.461Z,15.80
2022-10-25T10:49:16.153Z,15.90
2022-10-25T10:51:57.118Z,15.90
2022-10-25T10:54:36.058Z,16.00
2022-10-25T10:57:07.185Z,16.10
2022-10-25T10:59:58.623Z,16.20
2022-10-25T11:02:41.108Z,16.20
2022-10-25T11:05:29.294Z,16.40
2022-10-25T11:08:19.268Z,16.50
2022-10-25T11:10:50.318Z,16.70
2022-10-25T11:13:37.609Z,16.90
2022-10-25T11:16:42.413Z,17.00
2022-10-25T11:19:32.272Z,17.40
2022-10-25T11:22:36.838Z,17.90
2022-10-25T11:25:16.548Z,18.50
2022-10-25T11:28:22.367Z,19.10
2022-10-25T11:31:29.990Z,19.80
2022-10-25T11:34:34.225Z,20.70
2022-10-25T11:37:24.732Z,21.10
2022-10-25T11:40:18.514Z,22.10
2022-10-25T11:43:15.172Z,23.00
2022-10-25T11:45:46.966Z,23.70
2022-10-25T11:48:35.225Z,23.90
2022-10-25T11:51:25.083Z,23.90
2022-10-25T11:54:20.660Z,24.00
2022-10-25T11:57:11.789Z,24.50
2022-10-25T12:00:03.808Z,25.10
2022-10-25T12:03:12.531Z,25.70
2022-10-25T12:06:00.085Z,25.10
2022-10-25T12:08:50.225Z,25.20
2022-10-25T12:11:33.043Z,25.40
2022-10-25T12:14:15.177Z,25.50
2022-10-25T12:17:03.180Z,24.80
2022-10-25T12:19:51.199Z,25.20
2022-10-25T12:22:28.602Z,25.80
2022-10-25T12:25:02.489Z,26.20
2022-10-25T12:27:41.261Z,25.80
2022-10-25T12:30:18.083Z,25.40
2022-10-25T12:33:10.891Z,24.60
2022-10-25T12:35:49.657Z,25.00
2022-10-25T12:38:35.627Z,25.90
2022-10-25T12:41:29.633Z,26.20
2022-10-25T12:44:36.844Z,26.40
2022-10-25T12:47:50.627Z,27.00
2022-10-25T12:50:23.171Z,26.60
2022-10-25T12:53:27.691Z,26.40
2022-10-25T12:56:48.867Z,26.50
2022-10-25T12:59:43.160Z,26.10
2022-10-25T13:02:49.549Z,25.70
2022-10-25T13:09:22.279Z,26.40
2022-10-25T13:12:21.235Z,27.10
2022-10-25T13:14:55.730Z,26.30
2022-10-25T13:17:25.291Z,26.30
2022-10-25T13:20:15.869Z,26.10
2022-10-25T13:22:44.111Z,25.40
2022-10-25T13:25:13.986Z,25.70
2022-10-25T13:28:15.730Z,25.90
2022-10-25T13:31:30.381Z,26.10
2022-10-25T13:34:12.539Z,25.60
2022-10-25T13:36:58.996Z,26.30
2022-10-25T13:39:32.088Z,26.40
2022-10-25T13:42:34.093Z,25.90
2022-10-25T13:45:34.803Z,25.40
2022-10-25T13:48:35.783Z,26.20
2022-10-25T13:51:12.504Z,25.80
2022-10-25T13:53:47.166Z,25.80
2022-10-25T13:56:51.872Z,26.20
2022-10-25T13:59:54.551Z,26.20
2022-10-25T14:02:23.037Z,26.70
2022-10-25T14:04:52.472Z,26.10
2022-10-25T14:07:45.681Z,25.90
2022-10-25T14:10:44.726Z,26.00
2022-10-25T14:13:34.511Z,25.70
2022-10-25T14:16:05.011Z,25.50
2022-10-25T14:18:54.066Z,25.00
2022-10-25T14:21:24.932Z,23.90
2022-10-25T14:23:54.288Z,22.90
2022-10-25T14:26:23.301Z,21.60
2022-10-25T14:29:25.157Z,21.10
2022-10-25T14:31:54.007Z,20.80
2022-10-25T14:34:36.150Z,20.10
2022-10-25T14:37:03.791Z,19.80
2022-10-25T14:40:03.379Z,19.40
2022-10-25T14:42:31.838Z,18.80
2022-10-25T14:45:02.609Z,18.50
2022-10-25T14:47:48.025Z,18.20
2022-10-25T14:50:54.567Z,17.90
2022-10-25T14:53:23.151Z,17.70
2022-10-25T14:56:02.310Z,17.50
2022-10-25T14:58:42.523Z,17.40
2022-10-25T15:01:21.807Z,17.20
2022-10-25T15:03:54.636Z,17.00
2022-10-25T15:06:33.456Z,16.90
2022-10-25T15:09:41.083Z,16.80
2022-10-25T15:12:21.890Z,16.70
2022-10-25T15:15:32.925Z,16.50
2022-10-25T15:18:30.322Z,16.30
2022-10-25T15:25:02.778Z,16.10
2022-10-25T15:28:23.695Z,16.00
2022-10-25T15:30:53.634Z,15.90
2022-10-25T15:33:32.168Z,15.70
2022-10-25T15:36:05.387Z,15.60
2022-10-25T15:39:05.303Z,15.50
2022-10-25T15:41:24.113Z,15.40
2022-10-25T15:43:57.097Z,15.20
2022-10-25T15:46:54.164Z,15.00
2022-10-25T15:49:33.225Z,14.90
2022-10-25T15:52:22.437Z,14.70
2022-10-25T15:55:19.503Z,14.50
2022-10-25T15:57:55.663Z,14.30
2022-10-25T16:00:42.450Z,14.20
2022-10-25T16:03:21.227Z,14.10
2022-10-25T16:06:06.804Z,13.90
2022-10-25T16:11:22.878Z,13.60
2022-10-25T16:14:18.513Z,13.50
2022-10-25T16:16:52.174Z,13.30
2022-10-25T16:19:22.688Z,13.10
2022-10-25T16:21:59.200Z,13.00
2022-10-25T16:24:38.342Z,12.80
2022-10-25T16:27:15.186Z,12.70
2022-10-25T16:29:47.358Z,12.50
2022-10-25T16:32:29.442Z,12.40
2022-10-25T16:35:10.421Z,12.30
2022-10-25T16:37:41.393Z,12.10
2022-10-25T16:40:22.344Z,11.90
2022-10-25T16:42:59.404Z,11.90
2022-10-25T16:45:37.381Z,11.90
2022-10-25T16:48:08.380Z,11.80
2022-10-25T16:50:38.254Z,11.70
2022-10-25T16:53:15.004Z,11.70
2022-10-25T16:56:06.533Z,11.60
2022-10-25T16:58:43.393Z,11.40
2022-10-25T17:01:38.981Z,11.20
2022-10-25T17:04:17.012Z,11.10
2022-10-25T17:07:00.852Z,10.90
2022-10-25T17:09:29.119Z,10.80
2022-10-25T17:11:56.958Z,10.70
2022-10-25T17:14:25.072Z,10.60
2022-10-25T17:17:02.311Z,10.50
2022-10-25T17:19:42.979Z,10.50
2022-10-25T17:22:11.654Z,10.60
2022-10-25T17:24:40.451Z,10.50
2022-10-25T17:27:08.934Z,10.40
2022-10-25T17:29:40.129Z,10.40
2022-10-25T17:32:09.251Z,10.50
2022-10-25T17:34:48.256Z,10.60
2022-10-25T17:37:29.148Z,10.60
2022-10-25T17:39:59.041Z,10.50
2022-10-25T17:42:47.999Z,10.40
2022-10-25T17:45:16.253Z,10.30
2022-10-25T17:47:47.693Z,10.20
2022-10-25T17:50:20.476Z,10.20
2022-10-25T17:52:52.688Z,10.10
2022-10-25T17:55:21.315Z,10.00
2022-10-25T17:57:50.120Z,10.00
2022-10-25T18:00:26.651Z,10.00
2022-10-25T18:03:06.496Z,10.00
2022-10-25T18:05:42.968Z,10.00
2022-10-25T18:08:11.615Z,10.00
2022-10-25T18:10:40.117Z,10.00
2022-10-25T18:13:08.191Z,9.90
2022-10-25T18:15:38.597Z,9.80
2022-10-25T18:18:09.159Z,9.70
2022-10-25T18:20:40.626Z,9.80
2022-10-25T18:23:22.471Z,9.80
2022-10-25T18:28:27.568Z,9.70
2022-10-25T18:31:15.102Z,9.70
2022-10-25T18:33:48.627Z,9.60
2022-10-25T18:36:34.213Z,9.50
2022-10-25T18:39:05.600Z,9.40
2022-10-25T18:41:36.310Z,9.30
2022-10-25T18:44:14.991Z,9.30
2022-10-25T18:46:48.043Z,9.30
2022-10-25T18:49:16.085Z,9.40
2022-10-25T18:51:52.142Z,9.30
2022-10-25T18:54:37.296Z,9.20
2022-10-25T18:57:13.617Z,9.10
2022-10-25T18:59:42.369Z,9.10
2022-10-25T19:02:12.200Z,9.10
2022-10-25T19:04:42.181Z,9.10
2022-10-25T19:07:15.138Z,9.20
2022-10-25T19:09:47.914Z,9.10
2022-10-25T19:12:17.847Z,9.00
2022-10-25T19:17:15.978Z,8.80
2022-10-25T19:19:44.511Z,8.80
2022-10-25T19:22:15.275Z,8.70
2022-10-25T19:24:45.379Z,8.60
2022-10-25T19:27:13.876Z,8.60
2022-10-25T19:29:42.172Z,8.60
2022-10-25T19:32:10.368Z,8.60
2022-10-25T19:34:38.505Z,8.70
2022-10-25T19:37:08.854Z,8.70
2022-10-25T19:39:37.876Z,8.80
2022-10-25T19:42:06.062Z,8.70
2022-10-25T19:44:34.061Z,8.70
2022-10-25T19:47:02.272Z,8.70
2022-10-25T19:49:30.174Z,8.80
2022-10-25T19:51:58.513Z,8.70
2022-10-25T19:54:26.520Z,8.60
2022-10-25T19:56:55.393Z,8.50
2022-10-25T19:59:23.366Z,8.50
2022-10-25T20:01:51.345Z,8.40
2022-10-25T20:04:21.215Z,8.30
2022-10-25T20:06:49.267Z,8.30
2022-10-25T20:09:17.465Z,8.30
2022-10-25T20:11:45.725Z,8.40
2022-10-25T20:14:13.694Z,8.40
2022-10-25T20:16:41.711Z,8.40
2022-10-25T20:19:13.469Z,8.40
2022-10-25T20:21:41.569Z,8.30
2022-10-25T20:24:10.266Z,8.40
2022-10-25T20:26:41.099Z,8.40
2022-10-25T20:29:18.495Z,8.30
2022-10-25T20:31:50.433Z,8.30
2022-10-25T20:34:19.862Z,8.20
2022-10-25T20:36:48.412Z,8.20
2022-10-25T20:39:17.509Z,8.20
2022-10-25T20:41:46.031Z,8.20
2022-10-25T20:44:14.777Z,8.10
2022-10-25T20:46:43.420Z,8.10
2022-10-25T20:49:13.396Z,8.00
2022-10-25T20:51:41.716Z,7.90
2022-10-25T20:54:10.688Z,7.90
2022-10-25T20:56:40.325Z,7.80
2022-10-25T20:59:08.625Z,7.90
2022-10-25T21:01:37.167Z,8.00
2022-10-25T21:04:09.036Z,7.90
2022-10-25T21:06:49.118Z,7.90
2022-10-25T21:09:19.298Z,7.80
2022-10-25T21:11:48.556Z,7.90
2022-10-25T21:14:24.282Z,7.80
2022-10-25T21:16:52.566Z,7.80
2022-10-25T21:19:20.724Z,7.80
2022-10-25T21:21:50.569Z,7.70
2022-10-25T21:24:20.480Z,7.70
2022-10-25T21:26:48.560Z,7.70
2022-10-25T21:29:16.537Z,7.70
2022-10-25T21:31:48.491Z,7.70
2022-10-25T21:36:54.365Z,7.70
2022-10-25T21:39:24.391Z,7.70
2022-10-25T21:41:54.014Z,7.70
2022-10-25T21:44:22.857Z,7.80
2022-10-25T21:46:52.535Z,7.90
2022-10-25T21:49:31.997Z,8.00
2022-10-25T21:51:59.893Z,8.00
2022-10-25T21:54:29.629Z,8.10
2022-10-25T21:57:02.799Z,8.20
2022-10-25T21:59:32.378Z,8.30
2022-10-25T22:02:00.700Z,8.30
2022-10-25T22:04:28.857Z,8.40
2022-10-25T22:06:56.984Z,8.40
2022-10-25T22:09:25.046Z,8.60
2022-10-25T22:11:53.225Z,8.70
2022-10-25T22:14:21.008Z,8.90
2022-10-25T22:16:48.807Z,8.90
2022-10-25T22:19:19.697Z,8.90
2022-10-25T22:21:50.378Z,9.00
2022-10-25T22:24:18.665Z,9.10
2022-10-25T22:26:49.644Z,9.10
2022-10-25T22:29:17.483Z,9.10
2022-10-25T22:31:45.521Z,9.20
2022-10-25T22:34:13.768Z,9.30
2022-10-25T22:36:43.656Z,9.20
2022-10-25T22:39:11.814Z,9.10
2022-10-25T22:41:39.790Z,9.00
2022-10-25T22:44:07.898Z,9.00
2022-10-25T22:46:36.536Z,9.10
2022-10-25T22:49:08.850Z,9.30
2022-10-25T22:51:37.704Z,9.30
2022-10-25T22:54:05.955Z,9.40
2022-10-25T22:56:34.833Z,9.40
2022-10-25T22:59:05.126Z,9.50
2022-10-25T23:01:35.983Z,9.50
2022-10-25T23:04:07.286Z,9.50
2022-10-25T23:06:37.826Z,9.50
2022-10-25T23:09:11.712Z,9.50
2022-10-25T23:11:41.156Z,9.60
2022-10-25T23:14:14.722Z,9.60
2022-10-25T23:16:49.095Z,9.60
2022-10-25T23:19:17.136Z,9.70
2022-10-25T23:21:45.359Z,9.70
2022-10-25T23:24:13.186Z,9.80
2022-10-25T23:26:41.603Z,9.80
2022-10-25T23:29:12.278Z,9.80
2022-10-25T23:31:40.546Z,9.80
2022-10-25T23:34:08.553Z,9.80
2022-10-25T23:36:39.450Z,9.80
2022-10-25T23:39:08.020Z,9.80
2022-10-25T23:41:36.718Z,9.70
2022-10-25T23:44:05.053Z,9.70
2022-10-25T23:46:33.289Z,9.70
2022-10-25T23:49:00.146Z,9.80
2022-10-25T23:51:28.117Z,9.90
2022-10-25T23:53:56.028Z,9.90
2022-10-25T23:56:23.101Z,10.00
2022-10-25T23:58:53.746Z,10.00
